Time;durP1;ratioP1;P1;durP2;ratioP2;P2;SDS_P1;SDS_P2;PMS_P1;PMS_P2;Temp;Humidity;BMP_temperature;BMP_pressure;BME280_temperature;BME280_humidity;BME280_pressure;Samples;Min_cycle;Max_cycle;Signal;HPM_P1;HPM_P2
2022/09/28 00:01:06;;;;;;;21.83;19.77;;;9.30;99.90;;;;;;5011367;28;20313;-50
2022/09/28 00:03:35;;;;;;;21.53;15.43;;;9.30;99.90;;;;;;5011118;28;20306;-50
2022/09/28 00:06:05;;;;;;;23.77;17.77;;;9.30;99.90;;;;;;5012001;28;20209;-50
2022/09/28 00:08:35;;;;;;;40.67;28.63;;;9.30;99.90;;;;;;5011745;28;20196;-51
2022/09/28 00:11:05;;;;;;;34.50;27.33;;;9.30;99.90;;;;;;5011969;28;20318;-51
2022/09/28 00:13:34;;;;;;;17.60;13.77;;;9.20;99.90;;;;;;5011020;28;20683;-51
2022/09/28 00:16:04;;;;;;;44.10;28.43;;;9.20;99.90;;;;;;5011358;28;20217;-50
2022/09/28 00:18:33;;;;;;;30.43;22.50;;;9.20;99.90;;;;;;5012249;28;20215;-51
2022/09/28 00:21:03;;;;;;;30.10;23.97;;;9.10;99.90;;;;;;5011370;28;20310;-50
2022/09/28 00:23:31;;;;;;;21.47;17.40;;;9.10;99.90;;;;;;5011581;28;20294;-50
2022/09/28 00:26:04;;;;;;;34.47;30.97;;;9.10;99.90;;;;;;5011582;28;20233;-50
2022/09/28 00:28:32;;;;;;;17.00;11.57;;;9.20;99.90;;;;;;5010671;28;20298;-50
2022/09/28 00:31:00;;;;;;;22.73;15.80;;;9.20;99.90;;;;;;5011101;28;20249;-51
2022/09/28 00:33:28;;;;;;;34.57;24.63;;;9.20;99.90;;;;;;5010584;28;20203;-50
2022/09/28 00:35:57;;;;;;;40.63;31.00;;;9.20;99.90;;;;;;5010024;28;20243;-50
2022/09/28 00:38:29;;;;;;;16.50;12.87;;;9.20;99.90;;;;;;5011447;28;20258;-50
2022/09/28 00:40:58;;;;;;;20.47;17.93;;;9.10;99.90;;;;;;5011485;28;20314;-50
2022/09/28 00:43:28;;;;;;;32.17;23.53;;;9.10;99.90;;;;;;4997478;28;20716;-50
2022/09/28 00:46:00;;;;;;;31.27;27.30;;;9.10;99.90;;;;;;5011336;28;20229;-50
2022/09/28 00:48:32;;;;;;;43.83;31.57;;;9.10;99.90;;;;;;5011577;28;20239;-50
2022/09/28 00:51:04;;;;;;;31.70;26.47;;;9.10;99.90;;;;;;5017130;28;20241;-50
2022/09/28 00:53:35;;;;;;;40.07;23.53;;;9.10;99.90;;;;;;5010595;28;20313;-51
2022/09/28 00:56:08;;;;;;;32.43;26.37;;;9.00;99.90;;;;;;5010678;28;20306;-50
2022/09/28 00:58:41;;;;;;;53.13;22.53;;;9.00;99.90;;;;;;5010676;28;20257;-50
2022/09/28 01:01:10;;;;;;;35.93;29.23;;;9.10;99.90;;;;;;5010279;28;20318;-50
2022/09/28 01:03:44;;;;;;;23.17;16.70;;;9.00;99.90;;;;;;5010279;28;20229;-50
2022/09/28 01:06:17;;;;;;;34.10;25.50;;;9.00;99.90;;;;;;5011061;28;20207;-51
2022/09/28 01:08:49;;;;;;;47.70;35.17;;;9.00;99.90;;;;;;5010804;28;20207;-51
2022/09/28 01:11:18;;;;;;;31.40;27.10;;;9.00;99.90;;;;;;5010596;28;20237;-50
2022/09/28 01:13:49;;;;;;;14.97;13.23;;;9.00;99.90;;;;;;5010008;28;20234;-51
2022/09/28 01:16:27;;;;;;;30.70;22.50;;;9.00;99.90;;;;;;5011207;28;20297;-51
2022/09/28 01:19:08;;;;;;;28.33;20.13;;;9.00;99.90;;;;;;5010990;28;20311;-51
2022/09/28 01:21:46;;;;;;;26.90;23.07;;;8.90;99.90;;;;;;5011357;28;20602;-51
2022/09/28 01:24:40;;;;;;;54.20;30.40;;;9.00;99.90;;;;;;5010365;28;20304;-51
2022/09/28 01:27:15;;;;;;;24.73;19.13;;;8.90;99.90;;;;;;5010192;28;20306;-51
2022/09/28 01:29:56;;;;;;;29.83;22.93;;;9.00;99.90;;;;;;5010544;28;20313;-50
2022/09/28 01:32:36;;;;;;;38.67;32.17;;;9.00;99.90;;;;;;5009188;28;20211;-50
2022/09/28 01:35:09;;;;;;;66.27;37.47;;;9.00;99.90;;;;;;5010519;28;20293;-51
2022/09/28 01:37:45;;;;;;;66.13;36.57;;;8.90;99.90;;;;;;5003550;28;20215;-50
2022/09/28 01:40:15;;;;;;;19.80;17.30;;;8.90;99.90;;;;;;5009542;28;20233;-51
2022/09/28 01:42:49;;;;;;;17.03;13.17;;;8.90;99.90;;;;;;5009298;28;20203;-50
2022/09/28 01:45:23;;;;;;;29.03;26.30;;;8.90;99.90;;;;;;5010749;28;20207;-50
2022/09/28 01:47:55;;;;;;;20.07;13.90;;;8.90;99.90;;;;;;5010217;28;20209;-50
2022/09/28 01:50:25;;;;;;;12.97;11.67;;;8.90;99.90;;;;;;5010049;28;20241;-50
2022/09/28 01:52:59;;;;;;;21.03;17.73;;;9.00;99.90;;;;;;5009222;28;20298;-51
2022/09/28 01:55:31;;;;;;;13.20;11.90;;;9.00;99.90;;;;;;5010358;28;20289;-50
2022/09/28 01:58:07;;;;;;;13.40;11.93;;;9.00;99.90;;;;;;5009787;28;20221;-51
2022/09/28 02:00:40;;;;;;;13.17;10.97;;;9.00;99.90;;;;;;5009996;28;20230;-51
2022/09/28 02:03:12;;;;;;;25.53;21.07;;;9.00;99.90;;;;;;5009584;28;20303;-50
2022/09/28 02:05:43;;;;;;;17.70;15.23;;;9.00;99.90;;;;;;5009697;28;20199;-51
2022/09/28 02:08:18;;;;;;;14.90;12.60;;;9.10;99.90;;;;;;5009670;28;20658;-51
2022/09/28 02:10:52;;;;;;;16.80;13.70;;;9.10;99.90;;;;;;5009116;28;20321;-50
2022/09/28 02:13:27;;;;;;;20.63;18.83;;;9.00;99.90;;;;;;5008852;28;20296;-51
2022/09/28 02:16:00;;;;;;;26.67;20.53;;;9.00;99.90;;;;;;5009551;28;20369;-50
2022/09/28 02:18:29;;;;;;;16.43;13.37;;;9.00;99.90;;;;;;5008842;28;20210;-50
2022/09/28 02:21:05;;;;;;;23.10;20.87;;;9.10;99.90;;;;;;5009782;28;20305;-51
2022/09/28 02:23:35;;;;;;;40.77;32.93;;;9.10;99.90;;;;;;5008906;28;20293;-50
2022/09/28 02:26:06;;;;;;;14.40;12.80;;;9.00;99.90;;;;;;5009663;28;20683;-50
2022/09/28 02:28:36;;;;;;;13.57;12.07;;;9.00;99.90;;;;;;5015759;28;20248;-50
2022/09/28 02:31:04;;;;;;;11.97;10.87;;;9.00;99.90;;;;;;5009660;28;20241;-51
2022/09/28 02:33:38;;;;;;;33.30;28.30;;;9.00;99.90;;;;;;5008374;28;20203;-51
2022/09/28 02:36:07;;;;;;;13.90;12.30;;;9.00;99.90;;;;;;5009221;28;20302;-51
2022/09/28 02:38:36;;;;;;;13.40;11.90;;;9.00;99.90;;;;;;5009178;28;20205;-49
2022/09/28 02:41:14;;;;;;;17.67;14.43;;;9.10;99.90;;;;;;5009646;28;20625;-50
2022/09/28 02:43:57;;;;;;;31.93;25.43;;;9.10;99.90;;;;;;5008757;28;20290;-51
2022/09/28 02:46:32;;;;;;;13.00;11.67;;;9.10;99.90;;;;;;5009837;28;20200;-51
2022/09/28 02:49:16;;;;;;;20.00;18.00;;;9.00;99.90;;;;;;5009205;28;20213;-50
2022/09/28 02:52:08;;;;;;;13.77;12.07;;;9.00;99.90;;;;;;4998745;28;20251;-50
2022/09/28 02:54:56;;;;;;;17.27;13.50;;;9.10;99.90;;;;;;5013213;28;20666;-50
2022/09/28 02:57:34;;;;;;;9.70;8.87;;;9.10;99.90;;;;;;5013007;28;20282;-50
2022/09/28 03:00:09;;;;;;;14.20;12.67;;;9.20;99.90;;;;;;5013050;28;20294;-50
2022/09/28 03:02:45;;;;;;;20.97;18.63;;;9.30;99.90;;;;;;5012507;28;20206;-50
2022/09/28 03:05:18;;;;;;;12.87;11.57;;;9.30;99.90;;;;;;5001497;28;20237;-50
2022/09/28 03:07:52;;;;;;;15.77;13.87;;;9.30;99.90;;;;;;5013257;28;20322;-51
2022/09/28 03:10:28;;;;;;;33.90;28.40;;;9.30;99.90;;;;;;5013069;28;20391;-50
2022/09/28 03:12:57;;;;;;;9.17;8.27;;;9.40;99.90;;;;;;5012270;28;20297;-51
2022/09/28 03:15:28;;;;;;;13.93;12.50;;;9.40;99.90;;;;;;5013424;28;20215;-50
2022/09/28 03:17:57;;;;;;;9.33;8.43;;;9.40;99.90;;;;;;5012719;28;20217;-50
2022/09/28 03:20:26;;;;;;;15.70;13.63;;;9.50;99.90;;;;;;5012438;28;20237;-51
2022/09/28 03:22:54;;;;;;;23.47;17.47;;;9.50;99.90;;;;;;5011852;28;20200;-51
2022/09/28 03:25:42;;;;;;;9.70;8.70;;;9.40;99.90;;;;;;4999823;28;20203;-50
2022/09/28 03:28:10;;;;;;;19.67;15.43;;;9.40;99.90;;;;;;5012271;28;20672;-50
2022/09/28 03:30:40;;;;;;;10.90;9.80;;;9.40;99.90;;;;;;5012204;28;20307;-50
2022/09/28 03:33:08;;;;;;;13.50;11.87;;;9.40;99.90;;;;;;5003376;28;20836;-50
2022/09/28 03:35:36;;;;;;;8.73;7.83;;;9.40;99.90;;;;;;5011949;28;20720;-50
2022/09/28 03:38:04;;;;;;;16.27;14.63;;;9.50;99.90;;;;;;5012629;28;20641;-50
2022/09/28 03:40:32;;;;;;;10.13;9.13;;;9.50;99.90;;;;;;5011291;28;20671;-51
2022/09/28 03:43:00;;;;;;;9.73;8.23;;;9.50;99.90;;;;;;5010731;28;20207;-51
2022/09/28 03:45:28;;;;;;;29.50;24.80;;;9.50;99.90;;;;;;5012293;28;20621;-51
2022/09/28 03:47:59;;;;;;;15.10;11.03;;;9.60;99.90;;;;;;5012578;28;20281;-51
2022/09/28 03:50:27;;;;;;;11.93;10.70;;;9.50;99.90;;;;;;5012281;28;20230;-50
2022/09/28 03:52:55;;;;;;;9.03;7.00;;;9.50;99.90;;;;;;5011500;28;20234;-51
2022/09/28 03:55:23;;;;;;;7.87;7.10;;;9.50;99.90;;;;;;5012295;28;20643;-50
2022/09/28 03:57:54;;;;;;;38.47;34.30;;;9.50;99.90;;;;;;5011865;28;20214;-51
2022/09/28 04:00:23;;;;;;;31.47;28.03;;;9.60;99.90;;;;;;5011998;28;20314;-50
2022/09/28 04:02:51;;;;;;;58.33;53.40;;;9.50;99.90;;;;;;5010560;28;20221;-51
2022/09/28 04:05:20;;;;;;;23.17;18.17;;;9.60;99.90;;;;;;5014214;28;20672;-50
2022/09/28 04:07:48;;;;;;;9.43;8.57;;;9.60;99.90;;;;;;5011036;28;20215;-51
2022/09/28 04:10:16;;;;;;;9.10;8.20;;;9.60;99.90;;;;;;5011311;28;20250;-51
2022/09/28 04:12:44;;;;;;;14.87;12.33;;;9.60;99.90;;;;;;5010733;28;20643;-51
2022/09/28 04:15:12;;;;;;;7.90;7.10;;;9.60;99.90;;;;;;5017306;28;20212;-51
2022/09/28 04:17:41;;;;;;;7.17;6.47;;;9.60;99.90;;;;;;5023476;28;20221;-50
2022/09/28 04:20:09;;;;;;;7.13;6.43;;;9.60;99.90;;;;;;5011431;28;20299;-51
2022/09/28 04:22:38;;;;;;;7.20;6.50;;;9.60;99.90;;;;;;5010821;28;20285;-50
2022/09/28 04:25:07;;;;;;;6.73;6.03;;;9.60;99.90;;;;;;5011285;28;20303;-50
2022/09/28 04:30:21;;;;;;;18.07;12.10;;;9.50;99.90;;;;;;5011123;28;20321;-51
2022/09/28 04:32:49;;;;;;;24.23;18.53;;;9.50;99.90;;;;;;5010093;28;20671;-50
2022/09/28 04:35:17;;;;;;;6.57;5.97;;;9.50;99.90;;;;;;5010985;28;20222;-50
2022/09/28 04:37:46;;;;;;;7.40;6.70;;;9.60;99.90;;;;;;5011320;28;20223;-50
2022/09/28 04:40:15;;;;;;;16.87;15.13;;;9.60;99.90;;;;;;5011368;28;20221;-50
2022/09/28 04:42:43;;;;;;;43.43;38.93;;;9.60;99.90;;;;;;4999868;28;20226;-51
2022/09/28 04:45:11;;;;;;;7.57;6.83;;;9.50;99.90;;;;;;5011581;28;20302;-50
2022/09/28 04:47:39;;;;;;;5.03;4.53;;;9.50;99.90;;;;;;5011407;28;20207;-51
2022/09/28 04:50:08;;;;;;;6.07;4.83;;;9.50;99.90;;;;;;5010870;28;20217;-51
2022/09/28 04:52:36;;;;;;;5.57;5.10;;;9.50;99.90;;;;;;5010572;28;20759;-50
2022/09/28 04:55:07;;;;;;;7.50;5.70;;;9.50;99.90;;;;;;5011096;28;20637;-50
2022/09/28 04:57:35;;;;;;;19.87;18.23;;;9.50;99.90;;;;;;5008314;28;20317;-51
2022/09/28 05:00:04;;;;;;;31.10;27.03;;;9.50;99.90;;;;;;5008414;28;20319;-50
2022/09/28 05:02:32;;;;;;;44.87;41.47;;;9.50;99.90;;;;;;5010551;28;20207;-51
2022/09/28 05:05:00;;;;;;;7.57;6.40;;;9.60;99.90;;;;;;5010623;28;20683;-50
2022/09/28 05:07:30;;;;;;;5.83;5.33;;;9.60;99.90;;;;;;5010963;28;20237;-50
2022/09/28 05:10:00;;;;;;;19.87;17.93;;;9.50;99.90;;;;;;4996066;28;20215;-51
2022/09/28 05:12:29;;;;;;;47.13;41.13;;;9.60;99.90;;;;;;5009587;28;20305;-50
2022/09/28 05:14:57;;;;;;;5.50;4.87;;;9.50;99.90;;;;;;5009351;28;20698;-50
2022/09/28 05:17:25;;;;;;;5.50;4.83;;;9.50;99.90;;;;;;5010834;28;20222;-50
2022/09/28 05:19:54;;;;;;;8.47;7.63;;;9.60;99.90;;;;;;5010529;28;20206;-51
2022/09/28 05:22:23;;;;;;;5.57;4.53;;;9.50;99.90;;;;;;5009410;28;20763;-51
2022/09/28 05:24:51;;;;;;;5.67;5.07;;;9.50;99.90;;;;;;5010828;28;20211;-50
2022/09/28 05:27:18;;;;;;;33.33;24.30;;;9.40;99.90;;;;;;5010261;28;20722;-51
2022/09/28 05:29:48;;;;;;;6.27;5.07;;;9.40;99.90;;;;;;5010620;28;20311;-51
2022/09/28 05:32:16;;;;;;;6.20;5.03;;;9.40;99.90;;;;;;5009953;28;20241;-51
2022/09/28 05:34:44;;;;;;;35.57;31.30;;;9.40;99.90;;;;;;5010406;28;20305;-51
2022/09/28 05:37:12;;;;;;;9.87;8.83;;;9.40;99.90;;;;;;5009962;28;20301;-50
2022/09/28 05:39:40;;;;;;;11.73;9.60;;;9.30;99.90;;;;;;5010759;28;20211;-50
2022/09/28 05:42:08;;;;;;;7.10;6.50;;;9.30;99.90;;;;;;5009666;28;20318;-50
2022/09/28 05:44:37;;;;;;;7.10;6.40;;;9.30;99.90;;;;;;5010484;28;20301;-51
2022/09/28 05:47:06;;;;;;;10.40;9.27;;;9.30;99.90;;;;;;5010093;28;20260;-51
2022/09/28 05:49:34;;;;;;;15.23;13.87;;;9.20;99.90;;;;;;5006513;28;20290;-51
2022/09/28 05:52:02;;;;;;;11.93;10.43;;;9.20;99.90;;;;;;5009084;28;20282;-51
2022/09/28 05:54:30;;;;;;;18.83;17.37;;;9.20;99.90;;;;;;5009974;28;20261;-51
2022/09/28 05:56:58;;;;;;;13.27;10.97;;;9.10;99.90;;;;;;5009641;28;20257;-51
2022/09/28 05:59:29;;;;;;;8.37;5.97;;;9.20;99.90;;;;;;5009383;28;20732;-51
2022/09/28 06:01:57;;;;;;;7.23;6.23;;;9.20;99.90;;;;;;5006186;28;20237;-51
2022/09/28 06:04:27;;;;;;;25.00;22.47;;;9.20;99.90;;;;;;5009112;28;20701;-51
2022/09/28 06:06:56;;;;;;;7.07;6.13;;;9.20;99.90;;;;;;5007046;28;20698;-51
2022/09/28 06:09:24;;;;;;;9.80;7.83;;;9.30;99.90;;;;;;5007413;28;20242;-50
2022/09/28 06:11:53;;;;;;;7.53;5.80;;;9.30;99.90;;;;;;5008970;28;20837;-51
2022/09/28 06:14:21;;;;;;;9.90;8.87;;;9.30;99.90;;;;;;5008674;28;20306;-50
2022/09/28 06:16:49;;;;;;;6.00;5.50;;;9.30;99.90;;;;;;5010004;28;20294;-50
2022/09/28 06:19:18;;;;;;;6.53;5.93;;;9.30;99.90;;;;;;5010062;28;20261;-51
2022/09/28 06:21:47;;;;;;;28.17;22.53;;;9.40;99.90;;;;;;5008914;28;20247;-49
2022/09/28 06:24:15;;;;;;;7.87;6.00;;;9.50;99.90;;;;;;5009820;28;20289;-51
2022/09/28 06:26:44;;;;;;;70.20;57.13;;;9.60;99.90;;;;;;5009116;28;20265;-50
2022/09/28 06:29:13;;;;;;;58.17;52.73;;;9.70;99.90;;;;;;5008981;28;20213;-50
2022/09/28 06:31:46;;;;;;;26.10;23.53;;;9.70;99.90;;;;;;5009086;28;20280;-50
2022/09/28 06:34:14;;;;;;;32.07;29.03;;;9.90;99.90;;;;;;5008331;28;20233;-50
2022/09/28 06:36:42;;;;;;;27.90;19.60;;;10.20;99.90;;;;;;5008942;28;20310;-50
2022/09/28 06:39:12;;;;;;;13.30;10.57;;;10.30;99.90;;;;;;5009310;28;20261;-50
2022/09/28 06:41:40;;;;;;;45.50;40.77;;;10.20;99.90;;;;;;5009353;28;20234;-50
2022/09/28 06:44:09;;;;;;;138.47;123.97;;;10.20;99.90;;;;;;5001813;28;20234;-50
2022/09/28 06:46:39;;;;;;;90.60;61.93;;;10.50;99.90;;;;;;5009499;28;20218;-51
2022/09/28 06:49:08;;;;;;;187.93;151.17;;;11.00;99.90;;;;;;5009040;28;20263;-50
2022/09/28 06:51:36;;;;;;;224.37;196.30;;;11.00;99.90;;;;;;5009177;28;20266;-50
2022/09/28 06:54:04;;;;;;;187.50;152.27;;;11.30;99.90;;;;;;5007469;28;20641;-51
2022/09/28 06:56:34;;;;;;;224.57;152.57;;;11.30;99.90;;;;;;5009158;28;20245;-51
2022/09/28 06:59:02;;;;;;;208.03;179.40;;;11.50;99.90;;;;;;5008494;28;20298;-50
2022/09/28 07:01:30;;;;;;;122.77;96.13;;;11.20;99.90;;;;;;5009048;28;20230;-50
2022/09/28 07:04:00;;;;;;;21.20;19.10;;;10.90;99.90;;;;;;5008417;28;20568;-49
2022/09/28 07:06:29;;;;;;;72.90;52.80;;;10.60;99.90;;;;;;5008921;28;20214;-51
2022/09/28 07:09:01;;;;;;;298.33;199.90;;;10.70;99.90;;;;;;5008918;28;20199;-51
2022/09/28 07:11:51;;;;;;;27.97;23.30;;;10.70;99.90;;;;;;5009016;28;20227;-50
2022/09/28 07:14:21;;;;;;;135.00;120.80;;;10.60;99.90;;;;;;5008541;28;20326;-51
2022/09/28 07:17:10;;;;;;;121.80;108.50;;;11.00;99.90;;;;;;5009698;28;20230;-50
2022/09/28 07:19:41;;;;;;;155.10;126.27;;;11.40;99.90;;;;;;5008861;28;20661;-50
2022/09/28 07:22:13;;;;;;;189.57;161.23;;;11.40;99.90;;;;;;5015079;28;20251;-50
2022/09/28 07:24:47;;;;;;;31.50;28.27;;;11.30;99.90;;;;;;5009386;28;20206;-49
2022/09/28 07:27:16;;;;;;;56.57;51.53;;;11.20;99.90;;;;;;5009110;28;20305;-50
2022/09/28 07:29:44;;;;;;;41.00;35.10;;;11.10;99.90;;;;;;5009283;28;20301;-50
2022/09/28 07:32:12;;;;;;;22.40;17.20;;;11.10;99.90;;;;;;4995136;28;20233;-50
2022/09/28 07:34:42;;;;;;;47.63;32.00;;;11.10;99.90;;;;;;5007880;28;20322;-50
2022/09/28 07:37:11;;;;;;;62.17;55.47;;;11.20;99.90;;;;;;5009816;28;20234;-51
2022/09/28 07:42:23;;;;;;;12.00;9.17;;;11.40;99.90;;;;;;5011064;28;20322;-50
2022/09/28 07:44:51;;;;;;;31.03;20.70;;;11.40;99.90;;;;;;5012348;28;20229;-53
2022/09/28 07:47:25;;;;;;;75.07;67.63;;;11.40;99.90;;;;;;5012349;28;20293;-52
2022/09/28 07:49:59;;;;;;;105.73;97.33;;;11.30;99.90;;;;;;5012187;28;20210;-53
2022/09/28 07:52:27;;;;;;;46.50;41.70;;;11.30;99.90;;;;;;5001577;28;20606;-50
2022/09/28 07:54:56;;;;;;;46.23;41.33;;;11.30;99.90;;;;;;5011633;28;20322;-51
2022/09/28 07:57:26;;;;;;;62.80;55.50;;;11.30;99.90;;;;;;5011634;28;20203;-51
2022/09/28 07:59:54;;;;;;;84.80;77.23;;;11.30;99.90;;;;;;5011380;28;20222;-51
2022/09/28 08:02:23;;;;;;;99.00;89.33;;;11.30;99.90;;;;;;5010779;28;20229;-50
2022/09/28 08:04:51;;;;;;;23.57;17.03;;;11.30;99.90;;;;;;5010514;28;20203;-51
2022/09/28 08:07:20;;;;;;;71.03;45.03;;;11.30;99.90;;;;;;5011009;28;20209;-51
2022/09/28 08:09:51;;;;;;;27.17;20.60;;;11.10;99.90;;;;;;5011702;28;20219;-50
2022/09/28 08:12:20;;;;;;;53.70;42.40;;;11.00;99.90;;;;;;5010544;28;20314;-50
2022/09/28 08:14:51;;;;;;;22.37;18.90;;;10.80;99.90;;;;;;5011987;28;20257;-50
2022/09/28 08:17:19;;;;;;;13.83;11.63;;;10.80;99.90;;;;;;5012318;28;20207;-50
2022/09/28 08:22:32;;;;;;;22.73;16.03;;;11.00;99.90;;;;;;5011256;28;20269;-51
2022/09/28 08:25:00;;;;;;;12.93;11.57;;;11.10;99.90;;;;;;5011909;28;20290;-51
2022/09/28 08:27:28;;;;;;;6.07;4.70;;;11.10;99.90;;;;;;5011309;28;20207;-51
2022/09/28 08:29:58;;;;;;;52.27;47.43;;;11.10;99.90;;;;;;5012018;28;20239;-51
2022/09/28 08:32:26;;;;;;;19.57;17.67;;;11.00;99.90;;;;;;5011131;28;20319;-50
2022/09/28 08:34:54;;;;;;;34.77;22.53;;;11.00;99.90;;;;;;5011301;28;20337;-51
2022/09/28 08:37:22;;;;;;;45.77;38.40;;;11.00;99.90;;;;;;5011507;28;20646;-50
2022/09/28 08:39:51;;;;;;;5.73;4.47;;;11.00;99.90;;;;;;5011612;28;20297;-51
2022/09/28 08:42:32;;;;;;;15.57;11.93;;;11.10;99.90;;;;;;5010921;28;20231;-51
2022/09/28 08:45:08;;;;;;;62.93;56.83;;;11.20;99.90;;;;;;5010929;28;20211;-51
2022/09/28 08:50:33;;;;;;;8.20;7.37;;;11.20;99.90;;;;;;5010261;28;20257;-51
2022/09/28 08:53:13;;;;;;;8.63;6.93;;;11.10;99.90;;;;;;5010763;28;20687;-50
2022/09/28 08:55:44;;;;;;;6.57;5.63;;;11.10;99.90;;;;;;5010972;28;20286;-50
2022/09/28 08:58:14;;;;;;;20.37;18.20;;;11.20;99.90;;;;;;5011030;28;20290;-51
2022/09/28 09:00:47;;;;;;;99.63;90.43;;;11.20;99.90;;;;;;5013297;28;20321;-50
2022/09/28 09:03:20;;;;;;;8.23;7.03;;;11.30;99.90;;;;;;5010774;28;20215;-50
2022/09/28 09:06:03;;;;;;;13.00;10.40;;;11.40;99.90;;;;;;5011254;28;20199;-51
2022/09/28 09:08:48;;;;;;;37.47;25.87;;;11.50;99.90;;;;;;5010634;28;20639;-51
2022/09/28 09:11:28;;;;;;;45.57;41.30;;;11.60;99.90;;;;;;5010616;28;20266;-50
2022/09/28 09:14:47;;;;;;;63.37;56.27;;;11.60;99.90;;;;;;5009898;28;20236;-50
2022/09/28 09:17:26;;;;;;;81.87;47.97;;;11.80;99.90;;;;;;5003897;28;20306;-51
2022/09/28 09:19:58;;;;;;;49.80;36.13;;;12.00;99.90;;;;;;4997591;28;20202;-51
2022/09/28 09:22:38;;;;;;;38.80;30.87;;;12.00;99.90;;;;;;5009794;28;20233;-51
2022/09/28 09:25:18;;;;;;;48.30;42.83;;;11.90;99.90;;;;;;5010359;28;20249;-50
2022/09/28 09:28:00;;;;;;;33.10;16.67;;;11.90;99.90;;;;;;5010400;28;20210;-51
2022/09/28 09:30:35;;;;;;;57.30;42.93;;;11.90;99.90;;;;;;5010524;28;20218;-50
2022/09/28 09:33:27;;;;;;;32.73;29.43;;;11.80;99.90;;;;;;5008517;28;20597;-51
2022/09/28 09:36:10;;;;;;;56.60;41.40;;;11.90;99.90;;;;;;5007475;28;20410;-51
2022/09/28 09:38:51;;;;;;;25.93;19.93;;;12.10;99.90;;;;;;5010238;28;20570;-50
2022/09/28 09:41:30;;;;;;;57.37;51.50;;;12.10;99.90;;;;;;5009903;28;20314;-51
2022/09/28 09:44:14;;;;;;;12.67;10.43;;;12.20;99.90;;;;;;5008333;28;20648;-50
2022/09/28 09:46:46;;;;;;;22.03;18.10;;;12.20;99.90;;;;;;5010489;28;20207;-51
2022/09/28 09:49:20;;;;;;;32.23;28.93;;;12.20;99.90;;;;;;4996536;28;20221;-51
2022/09/28 09:51:55;;;;;;;70.90;63.37;;;12.50;99.90;;;;;;5009873;28;20369;-51
2022/09/28 09:54:30;;;;;;;28.43;21.90;;;12.60;99.90;;;;;;5010424;28;20240;-50
2022/09/28 09:57:03;;;;;;;55.43;50.57;;;12.60;99.90;;;;;;5010174;28;20208;-51
2022/09/28 09:59:34;;;;;;;54.37;49.37;;;12.50;99.90;;;;;;5010290;28;20742;-50
2022/09/28 10:02:10;;;;;;;307.70;200.13;;;12.30;99.90;;;;;;5007639;28;20739;-51
2022/09/28 10:04:45;;;;;;;117.07;88.67;;;12.40;99.90;;;;;;5007382;28;20211;-51
2022/09/28 10:07:22;;;;;;;182.73;115.20;;;12.30;99.90;;;;;;5009283;28;20253;-51
2022/09/28 10:09:52;;;;;;;57.27;48.73;;;12.40;99.90;;;;;;5010103;28;20386;-50
2022/09/28 10:12:23;;;;;;;251.37;160.67;;;12.30;99.90;;;;;;5009157;28;20237;-50
2022/09/28 10:14:52;;;;;;;24.27;18.93;;;12.20;99.90;;;;;;5009632;28;20667;-50
2022/09/28 10:17:25;;;;;;;101.40;85.03;;;12.00;99.90;;;;;;5009972;28;20214;-49
2022/09/28 10:19:55;;;;;;;45.20;31.50;;;12.00;99.90;;;;;;5008098;28;20298;-51
2022/09/28 10:22:27;;;;;;;32.07;18.30;;;12.10;99.90;;;;;;5008023;28;20318;-51
2022/09/28 10:24:57;;;;;;;85.53;54.67;;;12.20;99.90;;;;;;5012485;28;20727;-51
2022/09/28 10:27:27;;;;;;;116.67;75.53;;;12.30;99.90;;;;;;5013807;28;20466;-50
2022/09/28 10:29:59;;;;;;;27.67;23.57;;;12.30;99.90;;;;;;5008798;28;20294;-50
2022/09/28 10:32:37;;;;;;;27.10;24.03;;;12.40;99.90;;;;;;5007595;28;20285;-51
2022/09/28 10:35:21;;;;;;;97.33;78.87;;;12.40;99.90;;;;;;5011091;28;20816;-51
2022/09/28 10:37:53;;;;;;;296.70;184.67;;;12.50;99.90;;;;;;5015135;28;20210;-51
2022/09/28 10:40:29;;;;;;;82.77;55.33;;;12.50;99.90;;;;;;5008695;28;21028;-51
2022/09/28 10:43:06;;;;;;;92.47;67.63;;;12.60;99.90;;;;;;5008266;28;20213;-50
2022/09/28 10:45:36;;;;;;;149.97;105.33;;;12.50;99.90;;;;;;5009111;28;20287;-50
2022/09/28 10:48:07;;;;;;;132.47;89.97;;;12.60;99.90;;;;;;5009914;28;20294;-50
2022/09/28 10:50:38;;;;;;;205.43;174.73;;;12.60;99.90;;;;;;5008770;28;20682;-50
2022/09/28 10:53:18;;;;;;;70.00;62.53;;;12.60;99.90;;;;;;5008428;28;20302;-51
2022/09/28 10:55:58;;;;;;;44.23;40.13;;;12.60;99.90;;;;;;4995889;28;20266;-49
2022/09/28 10:58:29;;;;;;;38.13;34.13;;;12.60;99.90;;;;;;5008945;28;20211;-51
2022/09/28 11:01:03;;;;;;;48.53;43.40;;;12.80;99.90;;;;;;5009411;28;20317;-51
2022/09/28 11:03:31;;;;;;;67.97;47.07;;;12.90;99.90;;;;;;5008779;28;20303;-50
2022/09/28 11:06:03;;;;;;;85.80;67.63;;;12.90;99.90;;;;;;4994838;28;20620;-51
2022/09/28 11:08:38;;;;;;;40.70;28.87;;;13.00;99.90;;;;;;5009487;28;20818;-50
2022/09/28 11:11:11;;;;;;;107.53;75.33;;;13.10;99.90;;;;;;5008920;28;20352;-51
2022/09/28 11:13:45;;;;;;;114.27;89.03;;;13.10;99.90;;;;;;5011367;28;20289;-51
2022/09/28 11:16:35;;;;;;;13.37;9.33;;;13.10;99.90;;;;;;5013641;28;20226;-51
2022/09/28 11:19:06;;;;;;;93.97;84.33;;;13.20;99.90;;;;;;5001446;28;20285;-50
2022/09/28 11:21:44;;;;;;;101.37;78.23;;;13.20;99.90;;;;;;5012138;28;20234;-50
2022/09/28 11:24:20;;;;;;;116.30;81.50;;;13.20;99.90;;;;;;5012354;28;20249;-50
2022/09/28 11:26:52;;;;;;;194.43;117.90;;;13.10;99.90;;;;;;5011987;28;20215;-51
2022/09/28 11:29:25;;;;;;;76.90;69.20;;;13.00;99.90;;;;;;5012298;28;20755;-50
2022/09/28 11:31:58;;;;;;;27.57;25.27;;;12.90;99.90;;;;;;5011877;28;20226;-51
2022/09/28 11:34:34;;;;;;;41.77;37.90;;;12.80;99.90;;;;;;5012605;28;20207;-49
2022/09/28 11:37:39;;;;;;;167.73;104.17;;;13.00;99.90;;;;;;5003741;28;20209;-50
2022/09/28 11:40:20;;;;;;;51.87;44.10;;;13.20;99.90;;;;;;5011879;28;20214;-50
2022/09/28 11:43:00;;;;;;;203.73;149.97;;;13.20;99.90;;;;;;5011728;28;20262;-50
2022/09/28 11:45:40;;;;;;;14.13;12.57;;;13.30;99.90;;;;;;5011193;28;20706;-51
2022/09/28 11:48:11;;;;;;;61.23;54.63;;;13.30;99.90;;;;;;5012383;28;20281;-50
2022/09/28 11:50:46;;;;;;;101.33;92.13;;;13.10;99.90;;;;;;5011630;28;20241;-51
2022/09/28 11:53:22;;;;;;;79.67;56.53;;;12.90;99.90;;;;;;5009360;28;20746;-50
2022/09/28 11:55:57;;;;;;;457.53;261.97;;;12.90;99.90;;;;;;5011343;28;20587;-50
2022/09/28 11:58:30;;;;;;;139.13;95.60;;;12.80;99.90;;;;;;5011697;28;20336;-51
2022/09/28 12:01:04;;;;;;;46.87;39.00;;;12.80;99.90;;;;;;5011917;28;20309;-51
2022/09/28 12:03:39;;;;;;;133.50;107.27;;;12.80;99.90;;;;;;5011913;28;20214;-50
2022/09/28 12:06:14;;;;;;;52.53;43.17;;;12.50;99.90;;;;;;5011478;28;20207;-50
2022/09/28 12:08:50;;;;;;;41.77;30.87;;;12.60;99.90;;;;;;5001527;28;20297;-51
2022/09/28 12:11:25;;;;;;;123.43;90.20;;;12.50;99.90;;;;;;5011333;28;20242;-50
2022/09/28 12:13:56;;;;;;;102.17;88.77;;;12.60;99.90;;;;;;5016472;28;20204;-51
2022/09/28 12:16:29;;;;;;;14.57;11.67;;;12.50;99.90;;;;;;5012027;28;20269;-50
2022/09/28 12:19:22;;;;;;;78.23;72.13;;;12.50;99.90;;;;;;5003645;28;20221;-51
2022/09/28 12:21:53;;;;;;;49.50;44.83;;;12.30;99.90;;;;;;5004312;28;20313;-50
2022/09/28 12:24:27;;;;;;;40.20;36.03;;;12.20;99.90;;;;;;4997078;28;20207;-51
2022/09/28 12:27:00;;;;;;;29.63;26.47;;;12.10;99.90;;;;;;5010391;28;20209;-50
2022/09/28 12:29:32;;;;;;;6.33;5.80;;;12.10;99.90;;;;;;5011152;28;20302;-51
2022/09/28 12:32:09;;;;;;;21.17;19.47;;;12.30;99.90;;;;;;5010870;28;20230;-50
2022/09/28 12:34:37;;;;;;;67.60;57.63;;;12.50;99.90;;;;;;5009624;28;20210;-52
2022/09/28 12:37:18;;;;;;;32.07;29.23;;;12.80;99.90;;;;;;5011022;28;20661;-50
2022/09/28 12:40:09;;;;;;;85.53;63.10;;;13.10;99.90;;;;;;5010852;28;20289;-50
2022/09/28 12:42:57;;;;;;;77.90;68.43;;;13.30;99.90;;;;;;5007955;28;20289;-51
2022/09/28 12:45:43;;;;;;;77.13;71.00;;;13.30;99.90;;;;;;4999259;28;20206;-50
2022/09/28 12:48:46;;;;;;;27.23;20.10;;;13.30;99.90;;;;;;5010730;28;20848;-50
2022/09/28 12:51:44;;;;;;;48.57;43.67;;;13.20;99.90;;;;;;5010589;28;20578;-50
2022/09/28 12:54:26;;;;;;;42.10;31.13;;;13.10;99.90;;;;;;5010203;28;20302;-51
2022/09/28 12:57:15;;;;;;;107.87;97.60;;;13.20;99.90;;;;;;5008550;28;20314;-50
2022/09/28 12:59:59;;;;;;;216.17;151.40;;;13.10;99.90;;;;;;5010712;28;20298;-50
2022/09/28 13:02:42;;;;;;;35.93;28.67;;;13.00;99.90;;;;;;5010848;28;20234;-51
2022/09/28 13:05:24;;;;;;;87.13;77.53;;;13.00;99.90;;;;;;5007274;28;20227;-51
2022/09/28 13:08:02;;;;;;;79.90;69.50;;;12.90;99.90;;;;;;5010020;28;20390;-50
2022/09/28 13:10:35;;;;;;;27.40;24.10;;;12.80;99.90;;;;;;5010629;28;20334;-50
2022/09/28 13:13:19;;;;;;;62.70;48.67;;;12.60;99.90;;;;;;5010025;28;20624;-51